sensor_id;sensor_type;location;lat;lon;timestamp;temperature;humidity
1592;DHT22;789;51.612;7.510;2023-07-20T00:01:47;19.60;1.00
1592;DHT22;789;51.612;7.510;2023-07-20T00:04:14;19.50;1.00
1592;DHT22;789;51.612;7.510;2023-07-20T00:06:41;19.60;1.00
1592;DHT22;789;51.612;7.510;2023-07-20T00:09:08;19.60;1.00
1592;DHT22;789;51.612;7.510;2023-07-20T00:11:36;19.70;1.00
1592;DHT22;789;51.612;7.510;2023-07-20T00:14:03;19.60;1.00
1592;DHT22;789;51.612;7.510;2023-07-20T00:16:31;19.60;1.00
1592;DHT22;789;51.612;7.510;2023-07-20T00:18:58;19.60;1.00
1592;DHT22;789;51.612;7.510;2023-07-20T00:21:25;19.60;1.00
1592;DHT22;789;51.612;7.510;2023-07-20T00:23:52;19.50;1.00
1592;DHT22;789;51.612;7.510;2023-07-20T00:26:18;19.50;1.00
1592;DHT22;789;51.612;7.510;2023-07-20T00:28:45;19.60;1.00
1592;DHT22;789;51.612;7.510;2023-07-20T00:31:12;19.60;1.00
1592;DHT22;789;51.612;7.510;2023-07-20T00:33:40;19.60;1.00
1592;DHT22;789;51.612;7.510;2023-07-20T00:36:06;19.60;1.00
1592;DHT22;789;51.612;7.510;2023-07-20T00:38:33;19.60;1.00
1592;DHT22;789;51.612;7.510;2023-07-20T00:41:00;19.50;1.00
1592;DHT22;789;51.612;7.510;2023-07-20T00:43:26;19.50;1.00
1592;DHT22;789;51.612;7.510;2023-07-20T00:45:53;19.50;1.00
1592;DHT22;789;51.612;7.510;2023-07-20T00:48:20;19.50;1.00
1592;DHT22;789;51.612;7.510;2023-07-20T00:50:48;19.50;1.00
1592;DHT22;789;51.612;7.510;2023-07-20T00:53:15;19.60;1.00
1592;DHT22;789;51.612;7.510;2023-07-20T00:55:42;19.50;1.00
1592;DHT22;789;51.612;7.510;2023-07-20T00:58:09;19.50;1.00
1592;DHT22;789;51.612;7.510;2023-07-20T01:00:36;19.40;1.00
1592;DHT22;789;51.612;7.510;2023-07-20T01:03:03;19.40;1.00
1592;DHT22;789;51.612;7.510;2023-07-20T01:05:42;19.20;1.00
1592;DHT22;789;51.612;7.510;2023-07-20T01:08:20;19.20;1.00
1592;DHT22;789;51.612;7.510;2023-07-20T01:10:55;19.20;1.00
1592;DHT22;789;51.612;7.510;2023-07-20T01:13:25;19.20;1.00
1592;DHT22;789;51.612;7.510;2023-07-20T01:15:56;19.20;1.00
1592;DHT22;789;51.612;7.510;2023-07-20T01:18:25;19.20;1.00
1592;DHT22;789;51.612;7.510;2023-07-20T01:20:52;19.10;1.00
1592;DHT22;789;51.612;7.510;2023-07-20T01:23:46;19.20;1.00
1592;DHT22;789;51.612;7.510;2023-07-20T01:26:31;19.10;1.00
1592;DHT22;789;51.612;7.510;2023-07-20T01:29:15;19.20;1.00
1592;DHT22;789;51.612;7.510;2023-07-20T01:31:47;19.20;1.00
1592;DHT22;789;51.612;7.510;2023-07-20T01:34:17;19.20;1.00
1592;DHT22;789;51.612;7.510;2023-07-20T01:36:45;19.30;1.00
1592;DHT22;789;51.612;7.510;2023-07-20T01:39:12;19.30;1.00
1592;DHT22;789;51.612;7.510;2023-07-20T01:41:40;19.30;1.00
1592;DHT22;789;51.612;7.510;2023-07-20T01:44:07;19.30;1.00
1592;DHT22;789;51.612;7.510;2023-07-20T01:46:34;19.30;1.00
1592;DHT22;789;51.612;7.510;2023-07-20T01:49:02;19.30;1.00
1592;DHT22;789;51.612;7.510;2023-07-20T01:51:29;19.40;1.00
1592;DHT22;789;51.612;7.510;2023-07-20T01:53:56;19.40;1.00
1592;DHT22;789;51.612;7.510;2023-07-20T01:56:22;19.40;1.00
1592;DHT22;789;51.612;7.510;2023-07-20T01:58:49;19.40;1.00
1592;DHT22;789;51.612;7.510;2023-07-20T02:01:16;19.40;1.00
1592;DHT22;789;51.612;7.510;2023-07-20T02:03:43;19.30;1.00
1592;DHT22;789;51.612;7.510;2023-07-20T02:06:11;19.40;1.00
1592;DHT22;789;51.612;7.510;2023-07-20T02:08:37;19.40;1.00
1592;DHT22;789;51.612;7.510;2023-07-20T02:11:04;19.30;1.00
1592;DHT22;789;51.612;7.510;2023-07-20T02:13:31;19.30;1.00
1592;DHT22;789;51.612;7.510;2023-07-20T02:15:57;19.30;1.00
1592;DHT22;789;51.612;7.510;2023-07-20T02:18:24;19.40;1.00
1592;DHT22;789;51.612;7.510;2023-07-20T02:20:52;19.40;1.00
1592;DHT22;789;51.612;7.510;2023-07-20T02:23:20;19.40;1.00
1592;DHT22;789;51.612;7.510;2023-07-20T02:25:47;19.40;1.00
1592;DHT22;789;51.612;7.510;2023-07-20T02:28:14;19.40;1.00
1592;DHT22;789;51.612;7.510;2023-07-20T02:30:41;19.40;1.00
1592;DHT22;789;51.612;7.510;2023-07-20T02:33:07;19.40;1.00
1592;DHT22;789;51.612;7.510;2023-07-20T02:35:34;19.40;1.00
1592;DHT22;789;51.612;7.510;2023-07-20T02:38:06;19.40;1.00
1592;DHT22;789;51.612;7.510;2023-07-20T02:40:34;19.40;1.00
1592;DHT22;789;51.612;7.510;2023-07-20T02:43:01;19.40;1.00
1592;DHT22;789;51.612;7.510;2023-07-20T02:45:27;19.40;1.00
1592;DHT22;789;51.612;7.510;2023-07-20T02:47:53;19.20;1.00
1592;DHT22;789;51.612;7.510;2023-07-20T02:50:20;19.20;1.00
1592;DHT22;789;51.612;7.510;2023-07-20T02:52:46;19.10;1.00
1592;DHT22;789;51.612;7.510;2023-07-20T02:55:13;19.00;1.00
1592;DHT22;789;51.612;7.510;2023-07-20T02:57:41;18.90;1.00
1592;DHT22;789;51.612;7.510;2023-07-20T03:00:09;18.80;1.00
1592;DHT22;789;51.612;7.510;2023-07-20T03:02:37;18.70;1.00
1592;DHT22;789;51.612;7.510;2023-07-20T03:05:04;18.70;1.00
1592;DHT22;789;51.612;7.510;2023-07-20T03:07:32;18.70;1.00
1592;DHT22;789;51.612;7.510;2023-07-20T03:09:59;18.80;1.00
1592;DHT22;789;51.612;7.510;2023-07-20T03:12:26;18.70;1.00
1592;DHT22;789;51.612;7.510;2023-07-20T03:14:54;18.70;1.00
1592;DHT22;789;51.612;7.510;2023-07-20T03:17:22;18.70;1.00
1592;DHT22;789;51.612;7.510;2023-07-20T03:19:49;18.70;1.00
1592;DHT22;789;51.612;7.510;2023-07-20T03:22:16;18.80;1.00
1592;DHT22;789;51.612;7.510;2023-07-20T03:24:42;18.80;1.00
1592;DHT22;789;51.612;7.510;2023-07-20T03:27:09;18.80;1.00
1592;DHT22;789;51.612;7.510;2023-07-20T03:29:35;18.80;1.00
1592;DHT22;789;51.612;7.510;2023-07-20T03:32:04;18.70;1.00
1592;DHT22;789;51.612;7.510;2023-07-20T03:34:31;18.70;1.00
1592;DHT22;789;51.612;7.510;2023-07-20T03:36:58;18.60;1.00
1592;DHT22;789;51.612;7.510;2023-07-20T03:39:24;18.60;1.00
1592;DHT22;789;51.612;7.510;2023-07-20T03:41:51;18.50;1.00
1592;DHT22;789;51.612;7.510;2023-07-20T03:44:18;18.40;1.00
1592;DHT22;789;51.612;7.510;2023-07-20T03:46:45;18.40;1.00
1592;DHT22;789;51.612;7.510;2023-07-20T03:49:13;18.40;1.00
1592;DHT22;789;51.612;7.510;2023-07-20T03:51:40;18.50;1.00
1592;DHT22;789;51.612;7.510;2023-07-20T03:54:07;18.50;1.00
1592;DHT22;789;51.612;7.510;2023-07-20T03:56:34;18.50;1.00
1592;DHT22;789;51.612;7.510;2023-07-20T03:59:01;18.50;1.00
1592;DHT22;789;51.612;7.510;2023-07-20T04:01:28;18.40;1.00
1592;DHT22;789;51.612;7.510;2023-07-20T04:03:55;18.40;1.00
1592;DHT22;789;51.612;7.510;2023-07-20T04:06:23;18.30;1.00
1592;DHT22;789;51.612;7.510;2023-07-20T04:08:49;18.30;1.00
1592;DHT22;789;51.612;7.510;2023-07-20T04:11:16;18.40;1.00
1592;DHT22;789;51.612;7.510;2023-07-20T04:13:43;18.40;1.00
1592;DHT22;789;51.612;7.510;2023-07-20T04:16:09;18.40;1.00
1592;DHT22;789;51.612;7.510;2023-07-20T04:18:36;18.40;1.00
1592;DHT22;789;51.612;7.510;2023-07-20T04:21:03;18.50;1.00
1592;DHT22;789;51.612;7.510;2023-07-20T04:23:31;18.40;1.00
1592;DHT22;789;51.612;7.510;2023-07-20T04:25:57;18.40;1.00
1592;DHT22;789;51.612;7.510;2023-07-20T04:28:24;18.40;1.00
1592;DHT22;789;51.612;7.510;2023-07-20T04:30:52;18.40;1.00
1592;DHT22;789;51.612;7.510;2023-07-20T04:33:19;18.40;1.00
1592;DHT22;789;51.612;7.510;2023-07-20T04:35:50;18.50;1.00
1592;DHT22;789;51.612;7.510;2023-07-20T04:38:17;18.50;1.00
1592;DHT22;789;51.612;7.510;2023-07-20T04:40:47;18.50;1.00
1592;DHT22;789;51.612;7.510;2023-07-20T04:43:14;18.50;1.00
1592;DHT22;789;51.612;7.510;2023-07-20T04:45:41;18.60;1.00
1592;DHT22;789;51.612;7.510;2023-07-20T04:48:10;18.60;1.00
1592;DHT22;789;51.612;7.510;2023-07-20T04:50:38;18.60;1.00
1592;DHT22;789;51.612;7.510;2023-07-20T04:53:04;18.60;1.00
1592;DHT22;789;51.612;7.510;2023-07-20T04:55:31;18.50;1.00
1592;DHT22;789;51.612;7.510;2023-07-20T04:58:00;18.50;1.00
1592;DHT22;789;51.612;7.510;2023-07-20T05:00:27;18.60;1.00
1592;DHT22;789;51.612;7.510;2023-07-20T05:02:54;18.60;1.00
1592;DHT22;789;51.612;7.510;2023-07-20T05:05:21;18.70;1.00
1592;DHT22;789;51.612;7.510;2023-07-20T05:07:48;18.80;1.00
1592;DHT22;789;51.612;7.510;2023-07-20T05:10:15;18.90;1.00
1592;DHT22;789;51.612;7.510;2023-07-20T05:12:41;18.90;1.00
1592;DHT22;789;51.612;7.510;2023-07-20T05:15:10;18.90;1.00
1592;DHT22;789;51.612;7.510;2023-07-20T05:17:36;18.90;1.00
1592;DHT22;789;51.612;7.510;2023-07-20T05:20:05;18.90;1.00
1592;DHT22;789;51.612;7.510;2023-07-20T05:22:32;18.90;1.00
1592;DHT22;789;51.612;7.510;2023-07-20T05:24:59;18.90;1.00
1592;DHT22;789;51.612;7.510;2023-07-20T05:27:26;18.90;1.00
1592;DHT22;789;51.612;7.510;2023-07-20T05:29:52;18.90;1.00
1592;DHT22;789;51.612;7.510;2023-07-20T05:32:20;18.90;1.00
1592;DHT22;789;51.612;7.510;2023-07-20T05:34:47;18.90;1.00
1592;DHT22;789;51.612;7.510;2023-07-20T05:37:14;18.90;1.00
1592;DHT22;789;51.612;7.510;2023-07-20T05:39:41;18.90;1.00
1592;DHT22;789;51.612;7.510;2023-07-20T05:42:08;19.00;1.00
1592;DHT22;789;51.612;7.510;2023-07-20T05:44:34;19.10;1.00
1592;DHT22;789;51.612;7.510;2023-07-20T05:47:01;19.10;1.00
1592;DHT22;789;51.612;7.510;2023-07-20T05:49:29;19.20;1.00
1592;DHT22;789;51.612;7.510;2023-07-20T05:51:56;19.30;1.00
1592;DHT22;789;51.612;7.510;2023-07-20T05:54:24;19.30;1.00
1592;DHT22;789;51.612;7.510;2023-07-20T05:56:50;19.30;1.00
1592;DHT22;789;51.612;7.510;2023-07-20T05:59:17;19.40;1.00
1592;DHT22;789;51.612;7.510;2023-07-20T06:01:44;19.40;1.00
1592;DHT22;789;51.612;7.510;2023-07-20T06:04:12;19.50;1.00
1592;DHT22;789;51.612;7.510;2023-07-20T06:06:40;19.60;1.00
1592;DHT22;789;51.612;7.510;2023-07-20T06:09:07;19.80;1.00
1592;DHT22;789;51.612;7.510;2023-07-20T06:11:37;20.00;1.00
1592;DHT22;789;51.612;7.510;2023-07-20T06:14:04;20.20;1.00
1592;DHT22;789;51.612;7.510;2023-07-20T06:16:30;20.40;1.00
1592;DHT22;789;51.612;7.510;2023-07-20T06:21:28;20.50;1.00
1592;DHT22;789;51.612;7.510;2023-07-20T06:23:56;20.50;1.00
1592;DHT22;789;51.612;7.510;2023-07-20T06:26:24;20.40;1.00
1592;DHT22;789;51.612;7.510;2023-07-20T06:28:51;20.40;1.00
1592;DHT22;789;51.612;7.510;2023-07-20T06:31:17;20.40;1.00
1592;DHT22;789;51.612;7.510;2023-07-20T06:33:44;20.40;1.00
1592;DHT22;789;51.612;7.510;2023-07-20T06:36:11;20.40;1.00
1592;DHT22;789;51.612;7.510;2023-07-20T06:38:37;20.40;1.00
1592;DHT22;789;51.612;7.510;2023-07-20T06:41:06;20.40;1.00
1592;DHT22;789;51.612;7.510;2023-07-20T06:43:33;20.40;1.00
1592;DHT22;789;51.612;7.510;2023-07-20T06:46:00;20.40;1.00
1592;DHT22;789;51.612;7.510;2023-07-20T06:48:27;20.40;1.00
1592;DHT22;789;51.612;7.510;2023-07-20T06:50:54;20.50;1.00
1592;DHT22;789;51.612;7.510;2023-07-20T06:53:21;20.60;1.00
1592;DHT22;789;51.612;7.510;2023-07-20T06:55:48;20.70;1.00
1592;DHT22;789;51.612;7.510;2023-07-20T06:58:17;20.80;1.00
1592;DHT22;789;51.612;7.510;2023-07-20T07:00:44;21.10;1.00
1592;DHT22;789;51.612;7.510;2023-07-20T07:03:11;21.50;1.00
1592;DHT22;789;51.612;7.510;2023-07-20T07:05:38;21.90;1.00
1592;DHT22;789;51.612;7.510;2023-07-20T07:08:05;22.20;1.00
1592;DHT22;789;51.612;7.510;2023-07-20T07:10:34;22.50;1.00
1592;DHT22;789;51.612;7.510;2023-07-20T07:13:01;22.70;1.00
1592;DHT22;789;51.612;7.510;2023-07-20T07:15:30;23.00;1.00
1592;DHT22;789;51.612;7.510;2023-07-20T07:17:57;23.20;1.00
1592;DHT22;789;51.612;7.510;2023-07-20T07:20:25;23.30;1.00
1592;DHT22;789;51.612;7.510;2023-07-20T07:22:52;23.40;1.00
1592;DHT22;789;51.612;7.510;2023-07-20T07:25:19;23.40;1.00
1592;DHT22;789;51.612;7.510;2023-07-20T07:27:45;23.30;1.00
1592;DHT22;789;51.612;7.510;2023-07-20T07:30:13;23.20;1.00
1592;DHT22;789;51.612;7.510;2023-07-20T07:32:42;23.00;1.00
1592;DHT22;789;51.612;7.510;2023-07-20T07:35:09;22.80;1.00
1592;DHT22;789;51.612;7.510;2023-07-20T07:37:38;22.70;1.00
1592;DHT22;789;51.612;7.510;2023-07-20T07:40:07;22.60;1.00
1592;DHT22;789;51.612;7.510;2023-07-20T07:42:34;22.80;1.00
1592;DHT22;789;51.612;7.510;2023-07-20T07:45:01;23.00;1.00
1592;DHT22;789;51.612;7.510;2023-07-20T07:47:27;23.30;1.00
1592;DHT22;789;51.612;7.510;2023-07-20T07:49:55;23.50;1.00
1592;DHT22;789;51.612;7.510;2023-07-20T07:52:23;23.70;1.00
1592;DHT22;789;51.612;7.510;2023-07-20T07:54:49;23.70;1.00
1592;DHT22;789;51.612;7.510;2023-07-20T07:57:16;23.50;1.00
1592;DHT22;789;51.612;7.510;2023-07-20T07:59:46;23.20;1.00
1592;DHT22;789;51.612;7.510;2023-07-20T08:02:12;23.00;1.00
1592;DHT22;789;51.612;7.510;2023-07-20T08:04:40;22.90;1.00
1592;DHT22;789;51.612;7.510;2023-07-20T08:07:08;23.30;1.00
1592;DHT22;789;51.612;7.510;2023-07-20T08:09:35;24.30;1.00
1592;DHT22;789;51.612;7.510;2023-07-20T08:12:02;25.20;1.00
1592;DHT22;789;51.612;7.510;2023-07-20T08:14:30;26.30;1.00
1592;DHT22;789;51.612;7.510;2023-07-20T08:16:56;27.30;1.00
1592;DHT22;789;51.612;7.510;2023-07-20T08:19:24;28.50;1.00
1592;DHT22;789;51.612;7.510;2023-07-20T08:21:50;29.30;1.00
1592;DHT22;789;51.612;7.510;2023-07-20T08:24:19;30.20;1.00
1592;DHT22;789;51.612;7.510;2023-07-20T08:26:45;31.30;1.00
1592;DHT22;789;51.612;7.510;2023-07-20T08:29:12;31.90;1.00
1592;DHT22;789;51.612;7.510;2023-07-20T08:31:39;32.40;1.00
1592;DHT22;789;51.612;7.510;2023-07-20T08:34:06;32.80;1.00
1592;DHT22;789;51.612;7.510;2023-07-20T08:36:32;33.40;1.00
1592;DHT22;789;51.612;7.510;2023-07-20T08:38:59;33.60;1.00
1592;DHT22;789;51.612;7.510;2023-07-20T08:41:30;34.10;1.00
1592;DHT22;789;51.612;7.510;2023-07-20T08:43:57;34.80;1.00
1592;DHT22;789;51.612;7.510;2023-07-20T08:46:26;35.40;1.00
1592;DHT22;789;51.612;7.510;2023-07-20T08:48:54;36.10;1.00
1592;DHT22;789;51.612;7.510;2023-07-20T08:51:23;36.50;1.00
1592;DHT22;789;51.612;7.510;2023-07-20T08:53:52;37.10;1.00
1592;DHT22;789;51.612;7.510;2023-07-20T08:56:20;36.80;1.00
1592;DHT22;789;51.612;7.510;2023-07-20T08:58:48;36.10;1.00
1592;DHT22;789;51.612;7.510;2023-07-20T09:01:16;34.80;1.00
1592;DHT22;789;51.612;7.510;2023-07-20T09:03:45;34.20;1.00
1592;DHT22;789;51.612;7.510;2023-07-20T09:06:12;33.40;1.00
1592;DHT22;789;51.612;7.510;2023-07-20T09:08:39;32.40;1.00
1592;DHT22;789;51.612;7.510;2023-07-20T09:11:06;31.90;1.00
1592;DHT22;789;51.612;7.510;2023-07-20T09:13:33;32.20;1.00
1592;DHT22;789;51.612;7.510;2023-07-20T09:16:01;32.90;1.00
1592;DHT22;789;51.612;7.510;2023-07-20T09:18:31;34.10;1.00
1592;DHT22;789;51.612;7.510;2023-07-20T09:21:01;34.50;1.00
1592;DHT22;789;51.612;7.510;2023-07-20T09:23:32;34.60;1.00
1592;DHT22;789;51.612;7.510;2023-07-20T09:25:59;35.40;1.00
1592;DHT22;789;51.612;7.510;2023-07-20T09:28:26;36.10;1.00
1592;DHT22;789;51.612;7.510;2023-07-20T09:30:54;37.00;1.00
1592;DHT22;789;51.612;7.510;2023-07-20T09:33:24;38.10;1.00
1592;DHT22;789;51.612;7.510;2023-07-20T09:35:51;38.50;1.00
1592;DHT22;789;51.612;7.510;2023-07-20T09:38:17;38.00;1.00
1592;DHT22;789;51.612;7.510;2023-07-20T09:40:45;38.00;1.00
1592;DHT22;789;51.612;7.510;2023-07-20T09:43:11;38.50;1.00
1592;DHT22;789;51.612;7.510;2023-07-20T09:45:42;39.30;1.00
1592;DHT22;789;51.612;7.510;2023-07-20T09:48:10;39.30;1.00
1592;DHT22;789;51.612;7.510;2023-07-20T09:50:48;39.20;1.00
1592;DHT22;789;51.612;7.510;2023-07-20T09:53:17;40.20;1.00
1592;DHT22;789;51.612;7.510;2023-07-20T09:55:44;40.60;1.00
1592;DHT22;789;51.612;7.510;2023-07-20T09:58:12;40.70;1.00
1592;DHT22;789;51.612;7.510;2023-07-20T10:00:43;40.80;1.00
1592;DHT22;789;51.612;7.510;2023-07-20T10:03:14;40.90;1.00
1592;DHT22;789;51.612;7.510;2023-07-20T10:05:47;39.90;1.00
1592;DHT22;789;51.612;7.510;2023-07-20T10:08:16;39.50;1.00
1592;DHT22;789;51.612;7.510;2023-07-20T10:10:46;39.50;1.00
1592;DHT22;789;51.612;7.510;2023-07-20T10:13:16;39.80;1.00
1592;DHT22;789;51.612;7.510;2023-07-20T10:15:47;40.10;1.00
1592;DHT22;789;51.612;7.510;2023-07-20T10:18:20;40.30;1.00
1592;DHT22;789;51.612;7.510;2023-07-20T10:20:51;39.90;1.00
1592;DHT22;789;51.612;7.510;2023-07-20T10:23:21;38.60;1.00
1592;DHT22;789;51.612;7.510;2023-07-20T10:25:50;38.10;1.00
1592;DHT22;789;51.612;7.510;2023-07-20T10:28:17;38.40;1.00
1592;DHT22;789;51.612;7.510;2023-07-20T10:30:44;38.90;1.00
1592;DHT22;789;51.612;7.510;2023-07-20T10:33:12;39.70;1.00
1592;DHT22;789;51.612;7.510;2023-07-20T10:35:53;39.90;1.00
1592;DHT22;789;51.612;7.510;2023-07-20T10:38:35;39.90;1.00
1592;DHT22;789;51.612;7.510;2023-07-20T10:41:04;39.20;1.00
1592;DHT22;789;51.612;7.510;2023-07-20T10:43:31;37.70;1.00
1592;DHT22;789;51.612;7.510;2023-07-20T10:45:58;37.00;1.00
1592;DHT22;789;51.612;7.510;2023-07-20T10:48:25;36.50;1.00
1592;DHT22;789;51.612;7.510;2023-07-20T10:51:13;36.00;1.00
1592;DHT22;789;51.612;7.510;2023-07-20T10:53:40;36.00;1.00
1592;DHT22;789;51.612;7.510;2023-07-20T10:56:08;36.70;1.00
1592;DHT22;789;51.612;7.510;2023-07-20T10:58:39;37.50;1.00
1592;DHT22;789;51.612;7.510;2023-07-20T11:01:06;38.10;1.00
1592;DHT22;789;51.612;7.510;2023-07-20T11:03:34;37.90;1.00
1592;DHT22;789;51.612;7.510;2023-07-20T11:06:33;37.20;1.00
1592;DHT22;789;51.612;7.510;2023-07-20T11:09:08;35.60;1.00
1592;DHT22;789;51.612;7.510;2023-07-20T11:11:37;34.30;1.00
1592;DHT22;789;51.612;7.510;2023-07-20T11:14:06;34.20;1.00
1592;DHT22;789;51.612;7.510;2023-07-20T11:16:38;35.20;1.00
1592;DHT22;789;51.612;7.510;2023-07-20T11:19:06;36.00;1.00
1592;DHT22;789;51.612;7.510;2023-07-20T11:21:42;36.50;1.00
1592;DHT22;789;51.612;7.510;2023-07-20T11:24:09;35.90;1.00
1592;DHT22;789;51.612;7.510;2023-07-20T11:26:44;34.90;1.00
1592;DHT22;789;51.612;7.510;2023-07-20T11:29:12;33.80;1.00
1592;DHT22;789;51.612;7.510;2023-07-20T11:31:40;33.00;1.00
1592;DHT22;789;51.612;7.510;2023-07-20T11:34:11;33.00;1.00
1592;DHT22;789;51.612;7.510;2023-07-20T11:36:43;34.20;1.00
1592;DHT22;789;51.612;7.510;2023-07-20T11:39:14;35.60;1.00
1592;DHT22;789;51.612;7.510;2023-07-20T11:41:46;36.80;1.00
1592;DHT22;789;51.612;7.510;2023-07-20T11:44:15;37.10;1.00
1592;DHT22;789;51.612;7.510;2023-07-20T11:46:44;37.30;1.00
1592;DHT22;789;51.612;7.510;2023-07-20T11:49:13;36.90;1.00
1592;DHT22;789;51.612;7.510;2023-07-20T11:51:42;36.20;1.00
1592;DHT22;789;51.612;7.510;2023-07-20T11:54:09;35.60;1.00
1592;DHT22;789;51.612;7.510;2023-07-20T11:56:36;34.70;1.00
1592;DHT22;789;51.612;7.510;2023-07-20T11:59:07;33.50;1.00
1592;DHT22;789;51.612;7.510;2023-07-20T12:01:36;32.30;1.00
1592;DHT22;789;51.612;7.510;2023-07-20T12:04:03;31.40;1.00
1592;DHT22;789;51.612;7.510;2023-07-20T12:06:30;30.60;1.00
1592;DHT22;789;51.612;7.510;2023-07-20T12:08:59;30.00;1.00
1592;DHT22;789;51.612;7.510;2023-07-20T12:11:33;29.40;1.00
1592;DHT22;789;51.612;7.510;2023-07-20T12:14:01;28.80;1.00
1592;DHT22;789;51.612;7.510;2023-07-20T12:16:28;28.40;1.00
1592;DHT22;789;51.612;7.510;2023-07-20T12:19:00;28.20;1.00
1592;DHT22;789;51.612;7.510;2023-07-20T12:21:27;28.00;1.00
1592;DHT22;789;51.612;7.510;2023-07-20T12:23:56;27.90;1.00
1592;DHT22;789;51.612;7.510;2023-07-20T12:26:24;27.70;1.00
1592;DHT22;789;51.612;7.510;2023-07-20T12:28:52;27.60;1.00
1592;DHT22;789;51.612;7.510;2023-07-20T12:31:19;27.60;1.00
1592;DHT22;789;51.612;7.510;2023-07-20T12:33:46;27.50;1.00
1592;DHT22;789;51.612;7.510;2023-07-20T12:36:15;27.40;1.00
1592;DHT22;789;51.612;7.510;2023-07-20T12:38:42;27.30;1.00
1592;DHT22;789;51.612;7.510;2023-07-20T12:41:10;27.20;1.00
1592;DHT22;789;51.612;7.510;2023-07-20T12:43:40;27.20;1.00
1592;DHT22;789;51.612;7.510;2023-07-20T12:46:07;27.10;1.00
1592;DHT22;789;51.612;7.510;2023-07-20T12:48:35;27.00;1.00
1592;DHT22;789;51.612;7.510;2023-07-20T12:51:03;26.90;1.00
1592;DHT22;789;51.612;7.510;2023-07-20T12:53:31;27.10;1.00
1592;DHT22;789;51.612;7.510;2023-07-20T12:55:57;26.90;1.00
1592;DHT22;789;51.612;7.510;2023-07-20T12:58:25;26.80;1.00
1592;DHT22;789;51.612;7.510;2023-07-20T13:00:54;26.80;1.00
1592;DHT22;789;51.612;7.510;2023-07-20T13:03:21;26.50;1.00
1592;DHT22;789;51.612;7.510;2023-07-20T13:05:48;26.60;1.00
1592;DHT22;789;51.612;7.510;2023-07-20T13:08:16;26.70;1.00
1592;DHT22;789;51.612;7.510;2023-07-20T13:10:43;26.60;1.00
1592;DHT22;789;51.612;7.510;2023-07-20T13:13:10;26.70;1.00
1592;DHT22;789;51.612;7.510;2023-07-20T13:15:41;26.80;1.00
1592;DHT22;789;51.612;7.510;2023-07-20T13:18:10;26.90;1.00
1592;DHT22;789;51.612;7.510;2023-07-20T13:20:37;26.90;1.00
1592;DHT22;789;51.612;7.510;2023-07-20T13:23:04;26.90;1.00
1592;DHT22;789;51.612;7.510;2023-07-20T13:25:31;26.90;1.00
1592;DHT22;789;51.612;7.510;2023-07-20T13:27:58;26.80;1.00
1592;DHT22;789;51.612;7.510;2023-07-20T13:30:25;26.70;1.00
1592;DHT22;789;51.612;7.510;2023-07-20T13:32:53;26.80;1.00
1592;DHT22;789;51.612;7.510;2023-07-20T13:35:21;26.80;1.00
1592;DHT22;789;51.612;7.510;2023-07-20T13:37:48;26.80;1.00
1592;DHT22;789;51.612;7.510;2023-07-20T13:40:15;26.80;1.00
1592;DHT22;789;51.612;7.510;2023-07-20T13:42:45;26.80;1.00
1592;DHT22;789;51.612;7.510;2023-07-20T13:45:11;26.80;1.00
1592;DHT22;789;51.612;7.510;2023-07-20T13:47:39;26.70;1.00
1592;DHT22;789;51.612;7.510;2023-07-20T13:50:07;26.80;1.00
1592;DHT22;789;51.612;7.510;2023-07-20T13:52:35;26.80;1.00
1592;DHT22;789;51.612;7.510;2023-07-20T13:55:02;26.90;1.00
1592;DHT22;789;51.612;7.510;2023-07-20T13:57:30;27.00;1.00
1592;DHT22;789;51.612;7.510;2023-07-20T13:59:57;27.00;1.00
1592;DHT22;789;51.612;7.510;2023-07-20T14:02:25;27.00;1.00
1592;DHT22;789;51.612;7.510;2023-07-20T14:04:52;26.90;1.00
1592;DHT22;789;51.612;7.510;2023-07-20T14:07:21;26.90;1.00
1592;DHT22;789;51.612;7.510;2023-07-20T14:09:49;27.00;1.00
1592;DHT22;789;51.612;7.510;2023-07-20T14:12:16;27.00;1.00
1592;DHT22;789;51.612;7.510;2023-07-20T14:14:43;27.10;1.00
1592;DHT22;789;51.612;7.510;2023-07-20T14:17:10;27.10;1.00
1592;DHT22;789;51.612;7.510;2023-07-20T14:19:37;27.10;1.00
1592;DHT22;789;51.612;7.510;2023-07-20T14:22:05;27.00;1.00
1592;DHT22;789;51.612;7.510;2023-07-20T14:24:32;27.10;1.00
1592;DHT22;789;51.612;7.510;2023-07-20T14:27:00;27.20;1.00
1592;DHT22;789;51.612;7.510;2023-07-20T14:29:27;27.10;1.00
1592;DHT22;789;51.612;7.510;2023-07-20T14:31:57;27.20;1.00
1592;DHT22;789;51.612;7.510;2023-07-20T14:34:24;27.10;1.00
1592;DHT22;789;51.612;7.510;2023-07-20T14:36:50;27.10;1.00
1592;DHT22;789;51.612;7.510;2023-07-20T14:39:17;27.00;1.00
1592;DHT22;789;51.612;7.510;2023-07-20T14:41:45;26.80;1.00
1592;DHT22;789;51.612;7.510;2023-07-20T14:44:13;26.70;1.00
1592;DHT22;789;51.612;7.510;2023-07-20T14:46:39;26.80;1.00
1592;DHT22;789;51.612;7.510;2023-07-20T14:49:06;26.70;1.00
1592;DHT22;789;51.612;7.510;2023-07-20T14:51:33;26.70;1.00
1592;DHT22;789;51.612;7.510;2023-07-20T14:54:01;26.90;1.00
1592;DHT22;789;51.612;7.510;2023-07-20T14:56:28;26.90;1.00
1592;DHT22;789;51.612;7.510;2023-07-20T14:58:55;26.80;1.00
1592;DHT22;789;51.612;7.510;2023-07-20T15:01:24;26.70;1.00
1592;DHT22;789;51.612;7.510;2023-07-20T15:03:51;26.80;1.00
1592;DHT22;789;51.612;7.510;2023-07-20T15:06:19;26.60;1.00
1592;DHT22;789;51.612;7.510;2023-07-20T15:08:46;26.50;1.00
1592;DHT22;789;51.612;7.510;2023-07-20T15:11:13;26.50;1.00
1592;DHT22;789;51.612;7.510;2023-07-20T15:13:39;26.60;1.00
1592;DHT22;789;51.612;7.510;2023-07-20T15:16:08;26.60;1.00
1592;DHT22;789;51.612;7.510;2023-07-20T15:18:36;26.70;1.00
1592;DHT22;789;51.612;7.510;2023-07-20T15:21:03;26.70;1.00
1592;DHT22;789;51.612;7.510;2023-07-20T15:23:30;26.70;1.00
1592;DHT22;789;51.612;7.510;2023-07-20T15:25:57;26.60;1.00
1592;DHT22;789;51.612;7.510;2023-07-20T15:28:23;26.60;1.00
1592;DHT22;789;51.612;7.510;2023-07-20T15:30:59;26.70;1.00
1592;DHT22;789;51.612;7.510;2023-07-20T15:33:26;26.70;1.00
1592;DHT22;789;51.612;7.510;2023-07-20T15:35:54;26.80;1.00
1592;DHT22;789;51.612;7.510;2023-07-20T15:38:21;26.70;1.00
1592;DHT22;789;51.612;7.510;2023-07-20T15:40:48;26.60;1.00
1592;DHT22;789;51.612;7.510;2023-07-20T15:43:15;26.50;1.00
1592;DHT22;789;51.612;7.510;2023-07-20T15:45:47;26.40;1.00
1592;DHT22;789;51.612;7.510;2023-07-20T15:48:14;26.40;1.00
1592;DHT22;789;51.612;7.510;2023-07-20T15:50:40;26.50;1.00
1592;DHT22;789;51.612;7.510;2023-07-20T15:53:09;26.60;1.00
1592;DHT22;789;51.612;7.510;2023-07-20T15:55:36;26.70;1.00
1592;DHT22;789;51.612;7.510;2023-07-20T15:58:02;26.70;1.00
1592;DHT22;789;51.612;7.510;2023-07-20T16:00:29;26.70;1.00
1592;DHT22;789;51.612;7.510;2023-07-20T16:02:56;26.50;1.00
1592;DHT22;789;51.612;7.510;2023-07-20T16:05:23;26.50;1.00
1592;DHT22;789;51.612;7.510;2023-07-20T16:07:50;26.40;1.00
1592;DHT22;789;51.612;7.510;2023-07-20T16:10:19;26.40;1.00
1592;DHT22;789;51.612;7.510;2023-07-20T16:12:45;26.20;1.00
1592;DHT22;789;51.612;7.510;2023-07-20T16:15:12;26.20;1.00
1592;DHT22;789;51.612;7.510;2023-07-20T16:17:40;26.10;1.00
1592;DHT22;789;51.612;7.510;2023-07-20T16:20:08;26.10;1.00
1592;DHT22;789;51.612;7.510;2023-07-20T16:22:35;26.00;1.00
1592;DHT22;789;51.612;7.510;2023-07-20T16:25:02;25.90;1.00
1592;DHT22;789;51.612;7.510;2023-07-20T16:27:31;25.90;1.00
1592;DHT22;789;51.612;7.510;2023-07-20T16:29:57;26.00;1.00
1592;DHT22;789;51.612;7.510;2023-07-20T16:32:24;25.90;1.00
1592;DHT22;789;51.612;7.510;2023-07-20T16:34:51;26.10;1.00
1592;DHT22;789;51.612;7.510;2023-07-20T16:37:18;25.90;1.00
1592;DHT22;789;51.612;7.510;2023-07-20T16:39:45;26.00;1.00
1592;DHT22;789;51.612;7.510;2023-07-20T16:42:12;26.00;1.00